createdAt,value
2022-11-02T00:00:29.832Z,23.87
2022-11-02T00:02:58.379Z,23.93
2022-11-02T00:05:26.870Z,23.67
2022-11-02T00:07:56.338Z,23.57
2022-11-02T00:10:26.738Z,23.17
2022-11-02T00:12:55.049Z,23.30
2022-11-02T00:15:25.419Z,22.17
2022-11-02T00:17:56.978Z,21.97
2022-11-02T00:20:27.850Z,22.90
2022-11-02T00:22:59.557Z,23.87
2022-11-02T00:25:30.587Z,23.27
2022-11-02T00:27:58.941Z,22.13
2022-11-02T00:30:27.206Z,22.90
2022-11-02T00:32:57.173Z,23.07
2022-11-02T00:35:25.448Z,24.17
2022-11-02T00:37:53.678Z,21.93
2022-11-02T00:40:22.259Z,20.87
2022-11-02T00:42:51.791Z,21.83
2022-11-02T00:45:20.226Z,20.63
2022-11-02T00:47:49.405Z,21.33
2022-11-02T00:50:17.931Z,19.70
2022-11-02T00:52:46.446Z,20.33
2022-11-02T00:55:15.816Z,21.73
2022-11-02T00:57:46.315Z,19.13
2022-11-02T01:00:17.211Z,19.53
2022-11-02T01:02:45.628Z,19.90
2022-11-02T01:05:14.099Z,18.10
2022-11-02T01:07:42.409Z,17.70
2022-11-02T01:10:12.435Z,19.00
2022-11-02T01:12:41.914Z,19.40
2022-11-02T01:15:12.391Z,20.67
2022-11-02T01:17:42.588Z,19.60
2022-11-02T01:20:11.619Z,20.83
2022-11-02T01:22:39.907Z,21.33
2022-11-02T01:25:09.220Z,20.53
2022-11-02T01:27:37.570Z,19.90
2022-11-02T01:30:06.998Z,19.23
2022-11-02T01:32:35.258Z,18.53
2022-11-02T01:35:05.048Z,18.50
2022-11-02T01:37:33.289Z,19.70
2022-11-02T01:40:01.682Z,20.43
2022-11-02T01:42:29.974Z,19.87
2022-11-02T01:44:58.477Z,19.70
2022-11-02T01:47:31.334Z,21.47
2022-11-02T01:50:06.677Z,21.10
2022-11-02T01:52:36.859Z,22.23
2022-11-02T01:55:11.672Z,22.57
2022-11-02T01:57:42.509Z,23.47
2022-11-02T02:00:15.191Z,23.50
2022-11-02T02:02:48.237Z,24.00
2022-11-02T02:05:18.867Z,23.47
2022-11-02T02:07:48.579Z,23.23
2022-11-02T02:10:16.956Z,23.37
2022-11-02T02:12:45.812Z,24.70
2022-11-02T02:15:18.255Z,24.23
2022-11-02T02:17:52.337Z,25.17
2022-11-02T02:20:39.227Z,25.90
2022-11-02T02:23:27.967Z,24.10
2022-11-02T02:26:30.873Z,25.57
2022-11-02T02:29:04.848Z,23.63
2022-11-02T02:31:37.897Z,24.50
2022-11-02T02:34:14.250Z,23.93
2022-11-02T02:36:48.877Z,24.60
2022-11-02T02:39:23.028Z,25.80
2022-11-02T02:42:00.114Z,24.67
2022-11-02T02:44:35.444Z,24.27
2022-11-02T02:47:09.657Z,25.00
2022-11-02T02:49:44.001Z,24.60
2022-11-02T02:52:13.805Z,24.07
2022-11-02T02:54:44.913Z,25.20
2022-11-02T02:57:18.732Z,24.40
2022-11-02T02:59:49.707Z,25.50
2022-11-02T03:02:24.680Z,25.63
2022-11-02T03:04:54.410Z,26.80
2022-11-02T03:07:31.027Z,27.00
2022-11-02T03:10:12.808Z,25.77
2022-11-02T03:12:51.447Z,27.27
2022-11-02T03:15:32.825Z,26.20
2022-11-02T03:18:07.354Z,25.90
2022-11-02T03:20:49.701Z,24.73
2022-11-02T03:23:23.006Z,24.73
2022-11-02T03:26:00.688Z,24.33
2022-11-02T03:28:42.234Z,23.20
2022-11-02T03:31:18.189Z,23.90
2022-11-02T03:33:54.748Z,24.30
2022-11-02T03:36:32.474Z,23.97
2022-11-02T03:39:06.240Z,25.23
2022-11-02T03:41:38.530Z,27.47
2022-11-02T03:44:12.333Z,24.40
2022-11-02T03:46:44.316Z,25.77
2022-11-02T03:49:19.864Z,25.57
2022-11-02T03:51:51.907Z,24.67
2022-11-02T03:54:28.395Z,24.30
2022-11-02T03:59:33.564Z,22.93
2022-11-02T04:02:03.683Z,23.60
2022-11-02T04:04:32.506Z,23.13
2022-11-02T04:07:01.029Z,23.00
2022-11-02T04:09:29.468Z,23.60
2022-11-02T04:12:11.826Z,23.10
2022-11-02T04:14:41.056Z,22.73
2022-11-02T04:17:32.308Z,22.87
2022-11-02T04:20:03.488Z,23.00
2022-11-02T04:23:04.061Z,23.17
2022-11-02T04:25:32.472Z,21.70
2022-11-02T04:28:15.540Z,22.47
2022-11-02T04:30:50.678Z,21.27
2022-11-02T04:33:33.992Z,21.77
2022-11-02T04:36:11.548Z,21.43
2022-11-02T04:38:40.485Z,22.83
2022-11-02T04:41:36.922Z,23.03
2022-11-02T04:44:08.976Z,21.97
2022-11-02T04:46:40.478Z,22.77
2022-11-02T04:49:12.472Z,22.73
2022-11-02T04:51:45.730Z,22.87
2022-11-02T04:54:17.969Z,23.07
2022-11-02T04:56:48.058Z,25.13
2022-11-02T04:59:17.528Z,24.80
2022-11-02T05:01:46.038Z,23.27
2022-11-02T05:04:17.432Z,23.87
2022-11-02T05:06:47.017Z,22.73
2022-11-02T05:09:15.278Z,22.57
2022-11-02T05:11:47.063Z,24.37
2022-11-02T05:14:15.387Z,24.57
2022-11-02T05:16:44.355Z,25.20
2022-11-02T05:19:14.726Z,23.17
2022-11-02T05:21:46.468Z,25.17
2022-11-02T05:24:15.348Z,24.40
2022-11-02T05:26:43.964Z,23.83
2022-11-02T05:29:12.395Z,22.97
2022-11-02T05:31:40.978Z,24.00
2022-11-02T05:34:09.255Z,24.23
2022-11-02T05:36:38.116Z,24.20
2022-11-02T05:39:07.994Z,22.80
2022-11-02T05:41:36.337Z,21.37
2022-11-02T05:44:04.771Z,20.30
2022-11-02T05:46:33.646Z,20.50
2022-11-02T05:49:01.857Z,19.50
2022-11-02T05:51:30.084Z,19.60
2022-11-02T05:53:59.247Z,18.73
2022-11-02T05:56:28.965Z,19.63
2022-11-02T05:58:57.318Z,18.23
2022-11-02T06:01:25.799Z,18.13
2022-11-02T06:03:54.504Z,18.77
2022-11-02T06:06:23.170Z,19.00
2022-11-02T06:08:51.439Z,17.40
2022-11-02T06:11:20.037Z,17.27
2022-11-02T06:13:51.705Z,19.20
2022-11-02T06:16:23.183Z,18.13
2022-11-02T06:18:52.071Z,17.23
2022-11-02T06:21:20.413Z,17.70
2022-11-02T06:23:49.105Z,16.83
2022-11-02T06:26:17.793Z,18.03
2022-11-02T06:28:46.057Z,17.83
2022-11-02T06:31:17.493Z,17.27
2022-11-02T06:33:46.491Z,17.57
2022-11-02T06:36:14.779Z,17.63
2022-11-02T06:38:43.168Z,17.37
2022-11-02T06:41:11.629Z,17.70
2022-11-02T06:43:41.075Z,19.33
2022-11-02T06:46:09.596Z,19.17
2022-11-02T06:48:39.255Z,18.23
2022-11-02T06:51:07.677Z,16.87
2022-11-02T06:53:35.996Z,16.80
2022-11-02T06:56:04.505Z,19.73
2022-11-02T06:58:32.989Z,19.53
2022-11-02T07:01:03.077Z,19.83
2022-11-02T07:03:32.320Z,21.03
2022-11-02T07:06:02.259Z,21.93
2022-11-02T07:08:30.676Z,22.37
2022-11-02T07:10:59.430Z,21.27
2022-11-02T07:13:28.633Z,20.73
2022-11-02T07:15:57.093Z,20.20
2022-11-02T07:18:25.488Z,21.20
2022-11-02T07:20:53.749Z,21.53
2022-11-02T07:23:24.287Z,20.13
2022-11-02T07:25:53.159Z,18.57
2022-11-02T07:28:22.060Z,18.87
2022-11-02T07:30:50.387Z,18.30
2022-11-02T07:33:18.655Z,18.33
2022-11-02T07:35:46.966Z,17.80
2022-11-02T07:38:15.696Z,16.53
2022-11-02T07:40:45.267Z,18.50
2022-11-02T07:43:13.487Z,16.93
2022-11-02T07:45:54.471Z,16.53
2022-11-02T07:48:22.829Z,17.10
2022-11-02T07:50:51.153Z,16.03
2022-11-02T07:53:19.425Z,14.67
2022-11-02T07:55:49.011Z,15.70
2022-11-02T07:58:17.283Z,17.27
2022-11-02T08:00:45.621Z,17.73
2022-11-02T08:03:14.933Z,16.80
2022-11-02T08:05:44.155Z,17.10
2022-11-02T08:08:14.673Z,15.83
2022-11-02T08:10:43.991Z,14.73
2022-11-02T08:13:15.741Z,14.33
2022-11-02T08:15:44.267Z,13.77
2022-11-02T08:18:15.778Z,13.90
2022-11-02T08:20:45.927Z,12.23
2022-11-02T08:23:15.637Z,12.73
2022-11-02T08:25:45.791Z,13.43
2022-11-02T08:28:17.400Z,12.57
2022-11-02T08:30:45.719Z,12.57
2022-11-02T08:33:15.863Z,12.02
2022-11-02T08:35:46.094Z,12.75
2022-11-02T08:38:15.095Z,13.05
2022-11-02T08:40:44.823Z,13.93
2022-11-02T08:43:15.912Z,13.55
2022-11-02T08:48:33.956Z,13.80
2022-11-02T08:51:02.800Z,14.48
2022-11-02T08:53:31.189Z,14.07
2022-11-02T08:55:59.634Z,14.60
2022-11-02T08:58:29.186Z,13.10
2022-11-02T09:00:57.728Z,13.40
2022-11-02T09:03:27.316Z,14.82
2022-11-02T09:05:59.866Z,14.82
2022-11-02T09:08:28.988Z,14.00
2022-11-02T09:11:01.068Z,14.20
2022-11-02T09:13:31.370Z,13.05
2022-11-02T09:16:00.820Z,14.55
2022-11-02T09:18:29.457Z,14.55
2022-11-02T09:20:58.409Z,14.20
2022-11-02T09:23:26.757Z,14.43
2022-11-02T09:25:55.010Z,14.70
2022-11-02T09:28:23.312Z,14.32
2022-11-02T09:30:52.926Z,14.18
2022-11-02T09:33:21.334Z,15.07
2022-11-02T09:35:50.668Z,14.70
2022-11-02T09:38:19.518Z,14.90
2022-11-02T09:40:56.193Z,15.43
2022-11-02T09:43:38.589Z,15.82
2022-11-02T09:46:10.568Z,15.07
2022-11-02T09:48:44.127Z,14.32
2022-11-02T09:51:16.521Z,14.35
2022-11-02T09:53:56.500Z,14.70
2022-11-02T09:56:25.198Z,13.98
2022-11-02T09:59:00.325Z,15.07
2022-11-02T10:01:55.486Z,14.35
2022-11-02T10:04:49.590Z,14.00
2022-11-02T10:07:30.461Z,16.35
2022-11-02T10:10:04.539Z,14.93
2022-11-02T10:12:40.738Z,14.57
2022-11-02T10:15:16.893Z,15.65
2022-11-02T10:17:49.099Z,15.77
2022-11-02T10:20:26.250Z,14.32
2022-11-02T10:23:00.508Z,16.00
2022-11-02T10:25:29.056Z,13.95
2022-11-02T10:28:04.825Z,15.18
2022-11-02T10:30:33.880Z,13.70
2022-11-02T10:33:03.816Z,13.00
2022-11-02T10:36:12.459Z,13.63
2022-11-02T10:38:45.865Z,11.95
2022-11-02T10:41:35.809Z,12.80
2022-11-02T10:44:21.537Z,15.43
2022-11-02T10:47:01.699Z,13.48
2022-11-02T10:49:59.376Z,13.43
2022-11-02T10:52:30.361Z,14.02
2022-11-02T10:54:58.622Z,13.23
2022-11-02T10:57:28.487Z,13.30
2022-11-02T11:00:25.705Z,14.43
2022-11-02T11:03:14.812Z,13.57
2022-11-02T11:05:59.248Z,13.57
2022-11-02T11:08:31.579Z,14.25
2022-11-02T11:11:15.754Z,13.00
2022-11-02T11:16:41.690Z,14.25
2022-11-02T11:19:41.479Z,14.07
2022-11-02T11:22:29.795Z,13.35
2022-11-02T11:25:27.059Z,13.00
2022-11-02T11:27:58.223Z,13.05
2022-11-02T11:30:54.045Z,11.75
2022-11-02T11:33:20.596Z,12.40
2022-11-02T11:35:51.332Z,11.70
2022-11-02T11:38:23.971Z,11.73
2022-11-02T11:40:55.641Z,14.70
2022-11-02T11:43:27.309Z,12.98
2022-11-02T11:46:03.714Z,13.00
2022-11-02T11:48:38.387Z,13.30
2022-11-02T11:51:29.403Z,14.02
2022-11-02T11:54:18.935Z,14.55
2022-11-02T11:56:47.798Z,15.15
2022-11-02T11:59:28.483Z,15.23
2022-11-02T12:01:59.404Z,15.07
2022-11-02T12:04:33.110Z,14.82
2022-11-02T12:07:32.266Z,14.82
2022-11-02T12:10:16.447Z,13.90
2022-11-02T12:12:59.556Z,14.73
2022-11-02T12:15:42.458Z,13.57
2022-11-02T12:18:33.275Z,14.57
2022-11-02T12:21:15.355Z,13.48
2022-11-02T12:24:06.450Z,15.30
2022-11-02T12:26:48.765Z,13.93
2022-11-02T12:29:39.379Z,11.70
2022-11-02T12:32:19.318Z,13.07
2022-11-02T12:35:27.946Z,12.70
2022-11-02T12:38:11.549Z,12.93
2022-11-02T12:40:49.720Z,11.98
2022-11-02T12:43:33.646Z,12.93
2022-11-02T12:46:05.879Z,11.38
2022-11-02T12:48:43.875Z,12.07
2022-11-02T12:51:16.206Z,10.88
2022-11-02T12:53:50.140Z,10.25
2022-11-02T12:56:23.886Z,10.75
2022-11-02T12:58:53.594Z,11.10
2022-11-02T13:01:27.986Z,10.48
2022-11-02T13:04:03.266Z,10.00
2022-11-02T13:06:36.057Z,10.50
2022-11-02T13:09:09.170Z,11.15
2022-11-02T13:11:41.385Z,11.43
2022-11-02T13:14:15.973Z,11.55
2022-11-02T13:16:49.966Z,11.35
2022-11-02T13:19:23.156Z,10.23
2022-11-02T13:21:56.016Z,10.63
2022-11-02T13:24:31.772Z,9.80
2022-11-02T13:27:14.326Z,11.05
2022-11-02T13:29:50.850Z,10.65
2022-11-02T13:32:28.417Z,10.60
2022-11-02T13:35:06.045Z,10.38
2022-11-02T13:37:40.890Z,10.18
2022-11-02T13:40:17.870Z,10.75
2022-11-02T13:43:20.518Z,11.05
2022-11-02T13:46:24.596Z,10.82
2022-11-02T13:48:58.477Z,10.15
2022-11-02T13:51:32.483Z,11.35
2022-11-02T13:54:04.380Z,11.05
2022-11-02T13:56:36.398Z,11.13
2022-11-02T13:59:07.477Z,11.65
2022-11-02T14:01:42.648Z,11.80
2022-11-02T14:04:14.358Z,10.80
2022-11-02T14:06:52.627Z,11.25
2022-11-02T14:09:32.127Z,11.25
2022-11-02T14:12:29.309Z,11.80
2022-11-02T14:15:30.833Z,12.00
2022-11-02T14:18:06.583Z,11.38
2022-11-02T14:20:37.172Z,12.32
2022-11-02T14:23:37.604Z,12.63
2022-11-02T14:26:06.178Z,12.80
2022-11-02T14:28:42.067Z,12.73
2022-11-02T14:31:36.060Z,13.80
2022-11-02T14:34:22.139Z,13.60
2022-11-02T14:37:04.497Z,13.77
2022-11-02T14:39:43.041Z,14.50
2022-11-02T14:42:27.091Z,15.97
2022-11-02T14:45:31.050Z,15.50
2022-11-02T14:48:01.947Z,15.57
2022-11-02T14:50:32.202Z,16.17
2022-11-02T14:53:05.907Z,16.97
2022-11-02T14:55:36.611Z,17.70
2022-11-02T14:58:11.205Z,17.17
2022-11-02T15:00:55.593Z,18.67
2022-11-02T15:03:33.802Z,17.67
2022-11-02T15:06:06.451Z,18.13
2022-11-02T15:08:37.439Z,18.33
2022-11-02T15:11:39.277Z,18.83
2022-11-02T15:14:52.829Z,19.37
2022-11-02T15:18:09.050Z,18.97
2022-11-02T15:20:40.198Z,19.23
2022-11-02T15:23:30.977Z,19.20
2022-11-02T15:26:00.925Z,18.73
2022-11-02T15:28:33.715Z,18.27
2022-11-02T15:31:05.556Z,19.13
2022-11-02T15:33:38.166Z,18.80
2022-11-02T15:36:09.605Z,19.53
2022-11-02T15:38:40.415Z,19.10
2022-11-02T15:41:27.825Z,19.80
2022-11-02T15:44:16.239Z,19.37
2022-11-02T15:46:56.089Z,19.10
2022-11-02T15:49:38.085Z,19.50
2022-11-02T15:52:18.397Z,19.20
2022-11-02T15:54:58.461Z,19.33
2022-11-02T15:57:37.702Z,18.97
2022-11-02T16:00:15.178Z,19.53
2022-11-02T16:02:46.826Z,19.73
2022-11-02T16:05:21.340Z,19.70
2022-11-02T16:08:09.986Z,18.43
2022-11-02T16:10:40.411Z,19.67
2022-11-02T16:13:17.894Z,21.23
2022-11-02T16:15:48.683Z,20.70
2022-11-02T16:18:27.558Z,20.50
2022-11-02T16:20:59.643Z,20.10
2022-11-02T16:23:30.144Z,20.30
2022-11-02T16:26:02.067Z,20.57
2022-11-02T16:28:32.192Z,20.33
2022-11-02T16:31:13.524Z,20.57
2022-11-02T16:33:48.618Z,21.40
2022-11-02T16:36:19.405Z,20.57
2022-11-02T16:38:50.756Z,20.53
2022-11-02T16:41:20.725Z,20.87
2022-11-02T16:43:51.177Z,20.63
2022-11-02T16:46:28.926Z,20.90
2022-11-02T16:49:16.461Z,20.53
2022-11-02T16:51:53.611Z,20.43
2022-11-02T16:54:31.485Z,20.73
2022-11-02T16:57:11.259Z,20.07
2022-11-02T16:59:48.807Z,21.10
2022-11-02T17:02:17.424Z,20.17
2022-11-02T17:04:48.149Z,20.67
2022-11-02T17:07:22.099Z,20.40
2022-11-02T17:09:54.474Z,20.20
2022-11-02T17:12:33.297Z,21.57
2022-11-02T17:15:05.016Z,20.07
2022-11-02T17:17:38.601Z,19.33
2022-11-02T17:20:16.779Z,19.20
2022-11-02T17:22:54.521Z,20.30
2022-11-02T17:25:25.109Z,20.10
2022-11-02T17:27:56.155Z,20.77
2022-11-02T17:30:44.878Z,20.37
2022-11-02T17:33:32.869Z,21.23
2022-11-02T17:36:07.198Z,21.57
2022-11-02T17:38:36.000Z,21.57
2022-11-02T17:41:24.998Z,21.37
2022-11-02T17:43:53.641Z,21.83
2022-11-02T17:46:21.939Z,21.50
2022-11-02T17:48:50.222Z,20.33
2022-11-02T17:51:21.180Z,21.87
2022-11-02T17:53:50.721Z,21.13
2022-11-02T17:56:18.986Z,21.10
2022-11-02T17:58:47.481Z,20.93
2022-11-02T18:01:18.328Z,20.87
2022-11-02T18:03:46.691Z,21.13
2022-11-02T18:06:14.997Z,21.23
2022-11-02T18:09:01.108Z,21.07
2022-11-02T18:11:29.539Z,21.63
2022-11-02T18:13:57.893Z,23.63
2022-11-02T18:16:27.494Z,23.30
2022-11-02T18:18:55.790Z,23.73
2022-11-02T18:21:24.063Z,23.30
2022-11-02T18:23:52.335Z,22.33
2022-11-02T18:26:20.556Z,23.20
2022-11-02T18:28:48.849Z,23.43
2022-11-02T18:31:17.258Z,21.83
2022-11-02T18:33:47.659Z,22.67
2022-11-02T18:36:15.883Z,23.50
2022-11-02T18:38:44.182Z,22.47
2022-11-02T18:41:31.911Z,22.07
2022-11-02T18:44:04.897Z,23.07
2022-11-02T18:46:36.516Z,22.60
2022-11-02T18:49:06.074Z,23.70
2022-11-02T18:51:34.967Z,21.97
2022-11-02T18:54:05.120Z,22.33
2022-11-02T18:56:33.510Z,23.20
2022-11-02T18:59:02.185Z,23.33
2022-11-02T19:01:30.586Z,22.57
2022-11-02T19:04:00.564Z,22.20
2022-11-02T19:06:49.858Z,22.77
2022-11-02T19:09:19.395Z,23.53
2022-11-02T19:11:53.538Z,23.60
2022-11-02T19:14:23.760Z,23.90
2022-11-02T19:16:52.059Z,23.03
2022-11-02T19:19:20.574Z,22.73
2022-11-02T19:21:50.159Z,22.23
2022-11-02T19:24:18.479Z,22.20
2022-11-02T19:26:46.790Z,21.30
2022-11-02T19:29:15.249Z,21.33
2022-11-02T19:31:44.302Z,21.70
2022-11-02T19:34:13.079Z,22.07
2022-11-02T19:36:41.348Z,22.77
2022-11-02T19:39:11.627Z,23.20
2022-11-02T19:41:40.433Z,22.97
2022-11-02T19:44:08.969Z,22.80
2022-11-02T19:46:37.320Z,22.40
2022-11-02T19:49:05.665Z,22.90
2022-11-02T19:51:34.021Z,22.77
2022-11-02T19:54:03.743Z,23.17
2022-11-02T19:56:35.085Z,22.77
2022-11-02T19:59:04.376Z,22.30
2022-11-02T20:01:34.442Z,22.13
2022-11-02T20:04:03.049Z,23.67
2022-11-02T20:06:35.621Z,22.60
2022-11-02T20:09:05.662Z,21.60
2022-11-02T20:11:36.252Z,21.60
2022-11-02T20:14:05.240Z,21.90
2022-11-02T20:16:33.526Z,22.70
2022-11-02T20:19:01.895Z,23.73
2022-11-02T20:21:36.866Z,24.13
2022-11-02T20:24:08.923Z,23.53
2022-11-02T20:26:40.892Z,23.43
2022-11-02T20:29:12.411Z,23.13
2022-11-02T20:31:44.291Z,22.40
2022-11-02T20:34:14.514Z,22.53
2022-11-02T20:36:42.840Z,22.60
2022-11-02T20:39:12.184Z,22.93
2022-11-02T20:41:41.802Z,23.43
2022-11-02T20:44:10.145Z,22.63
2022-11-02T20:46:41.595Z,22.90
2022-11-02T20:49:21.832Z,22.40
2022-11-02T20:51:57.884Z,22.47
2022-11-02T20:54:29.579Z,22.00
2022-11-02T20:56:59.457Z,21.50
2022-11-02T20:59:27.728Z,22.67
2022-11-02T21:01:56.172Z,22.80
2022-11-02T21:04:24.590Z,23.50
2022-11-02T21:06:52.890Z,22.70
2022-11-02T21:09:21.247Z,22.47
2022-11-02T21:12:06.783Z,22.20
2022-11-02T21:14:36.378Z,23.43
2022-11-02T21:17:06.779Z,22.87
2022-11-02T21:19:35.092Z,23.57
2022-11-02T21:22:03.308Z,22.77
2022-11-02T21:24:31.548Z,21.83
2022-11-02T21:26:59.865Z,22.60
2022-11-02T21:29:28.166Z,22.87
2022-11-02T21:31:57.748Z,23.20
2022-11-02T21:34:26.203Z,23.50
2022-11-02T21:36:54.485Z,23.67
2022-11-02T21:39:22.751Z,23.13
2022-11-02T21:41:51.147Z,21.90
2022-11-02T21:44:19.403Z,21.67
2022-11-02T21:46:47.646Z,22.23
2022-11-02T21:49:17.177Z,21.63
2022-11-02T21:51:45.838Z,22.67
2022-11-02T21:54:14.128Z,23.00
2022-11-02T21:56:43.256Z,23.33
2022-11-02T21:59:11.500Z,23.03
2022-11-02T22:01:45.193Z,22.73
2022-11-02T22:04:17.395Z,23.47
2022-11-02T22:06:45.626Z,23.37
2022-11-02T22:09:14.841Z,23.13
2022-11-02T22:11:44.988Z,23.63
2022-11-02T22:14:13.788Z,22.63
2022-11-02T22:16:43.740Z,22.33
2022-11-02T22:19:13.447Z,22.27
2022-11-02T22:21:44.435Z,22.57
2022-11-02T22:24:13.310Z,22.80
2022-11-02T22:26:41.978Z,23.23
2022-11-02T22:29:10.428Z,23.03
2022-11-02T22:31:41.770Z,23.70
2022-11-02T22:34:11.500Z,24.47
2022-11-02T22:36:43.606Z,23.63
2022-11-02T22:39:12.923Z,23.97
2022-11-02T22:41:42.303Z,23.97
2022-11-02T22:44:12.447Z,24.43
2022-11-02T22:46:42.287Z,23.30
2022-11-02T22:49:11.995Z,23.63
2022-11-02T22:51:44.049Z,24.03
2022-11-02T22:54:15.507Z,23.83
2022-11-02T22:56:44.906Z,24.30
2022-11-02T22:59:13.989Z,24.67
2022-11-02T23:01:43.061Z,24.30
2022-11-02T23:04:12.377Z,24.50
2022-11-02T23:06:41.185Z,24.77
2022-11-02T23:09:12.334Z,22.90
2022-11-02T23:11:40.695Z,23.93
2022-11-02T23:14:10.736Z,24.37
2022-11-02T23:16:40.447Z,23.33
2022-11-02T23:19:30.028Z,25.37
2022-11-02T23:22:17.498Z,24.33
2022-11-02T23:25:06.377Z,24.20
2022-11-02T23:27:56.025Z,24.63
2022-11-02T23:30:42.605Z,23.83
2022-11-02T23:33:10.876Z,23.43
2022-11-02T23:35:57.260Z,24.17
2022-11-02T23:38:45.474Z,23.07
2022-11-02T23:41:15.312Z,22.80
2022-11-02T23:43:43.568Z,22.50
2022-11-02T23:46:12.674Z,23.23
2022-11-02T23:48:42.652Z,23.27
2022-11-02T23:51:28.781Z,23.23
2022-11-02T23:54:14.930Z,23.43
2022-11-02T23:56:44.657Z,24.30
2022-11-02T23:59:13.244Z,22.83
